Terminal Aerodrome Forecast
Issued by NWS Corpus Christi, TX

Home | Current Version | Previous Version | Text Only | Print | Product List | Glossary On
Versions: 1 2 3 4 5 6 7 8 9 10 11 12 13 14 15
000
FTUS44 KCRP 061125
TAFCRP
TAF
KCRP 061125Z 0612/0712 17008KT P6SM SCT009 BKN012
     FM061500 16015G20KT P6SM BKN020
     FM061800 14018G28KT P6SM SCT030
     FM070300 16012G18KT P6SM SCT025
     FM070600 16009KT P6SM BKN020=

USA.gov is the U.S. government's official web portal to all federal, state and local government web resources and services.